Terminal Aerodrome Forecast
Issued by NWS Lake Charles, LA

Home | Current Version | Previous Version | Text Only | Print | Product List | Glossary On
Versions: 1 2 3 4 5 6 7 8 9 10 11 12 13
000
FTUS44 KLCH 302320
TAFARA
TAF
KARA 302320Z 3100/3124 19005KT P6SM SCT250
      TEMPO 3111/3113 4SM BR
     FM311800 18007KT P6SM VCTS SCT035CB SCT230=

USA.gov is the U.S. government's official web portal to all federal, state and local government web resources and services.